createdAt,value
2018-10-19T00:00:11.415Z,101932.26
2018-10-19T00:02:42.055Z,101938.80
2018-10-19T00:05:12.672Z,101936.19
2018-10-19T00:07:42.871Z,101935.22
2018-10-19T00:10:13.291Z,101930.00
2018-10-19T00:12:43.656Z,101930.62
2018-10-19T00:15:14.009Z,101927.23
2018-10-19T00:17:44.299Z,101925.42
2018-10-19T00:20:14.800Z,101926.30
2018-10-19T00:22:45.770Z,101925.64
2018-10-19T00:25:16.330Z,101925.38
2018-10-19T00:27:47.139Z,101919.17
2018-10-19T00:30:17.608Z,101921.14
2018-10-19T00:32:48.124Z,101926.23
2018-10-19T00:35:18.600Z,101922.05
2018-10-19T00:37:49.228Z,101923.44
2018-10-19T00:40:19.763Z,101923.02
2018-10-19T00:42:50.031Z,101920.44
2018-10-19T00:45:24.630Z,101927.43
2018-10-19T00:47:54.997Z,101926.59
2018-10-19T00:50:25.492Z,101924.11
2018-10-19T00:52:55.726Z,101923.41
2018-10-19T00:55:26.001Z,101915.36
2018-10-19T00:57:56.412Z,101917.17
2018-10-19T01:00:26.702Z,101919.44
2018-10-19T01:02:57.292Z,101917.36
2018-10-19T01:05:27.620Z,101920.05
2018-10-19T01:07:58.154Z,101922.27
2018-10-19T01:10:28.719Z,101921.13
2018-10-19T01:13:00.048Z,101923.78
2018-10-19T01:15:30.962Z,101919.13
2018-10-19T01:18:01.340Z,101918.31
2018-10-19T01:20:31.752Z,101924.05
2018-10-19T01:23:02.191Z,101919.02
2018-10-19T01:25:32.747Z,101926.83
2018-10-19T01:28:03.585Z,101928.14
2018-10-19T01:30:34.023Z,101928.20
2018-10-19T01:33:04.336Z,101930.39
2018-10-19T01:35:34.765Z,101930.89
2018-10-19T01:38:05.147Z,101936.50
2018-10-19T01:40:35.729Z,101935.19
2018-10-19T01:43:06.328Z,101935.71
2018-10-19T01:45:36.736Z,101935.87
2018-10-19T01:48:07.149Z,101931.99
2018-10-19T01:50:37.435Z,101939.39
2018-10-19T01:53:08.107Z,101940.27
2018-10-19T01:55:38.515Z,101938.25
2018-10-19T01:58:08.988Z,101938.35
2018-10-19T02:00:39.240Z,101945.72
2018-10-19T02:03:09.719Z,101942.78
2018-10-19T02:05:40.622Z,101947.56
2018-10-19T02:08:11.802Z,101945.41
2018-10-19T02:10:42.011Z,101943.32
2018-10-19T02:13:12.388Z,101939.98
2018-10-19T02:15:42.793Z,101940.49
2018-10-19T02:18:13.280Z,101941.86
2018-10-19T02:20:43.651Z,101949.66
2018-10-19T02:23:14.181Z,101948.78
2018-10-19T02:25:44.409Z,101955.28
2018-10-19T02:28:14.876Z,101957.95
2018-10-19T02:30:45.375Z,101955.76
2018-10-19T02:33:15.963Z,101963.92
2018-10-19T02:35:46.440Z,101958.66
2018-10-19T02:38:16.667Z,101957.44
2018-10-19T02:40:46.980Z,101957.45
2018-10-19T02:43:17.445Z,101954.02
2018-10-19T02:45:47.747Z,101956.61
2018-10-19T02:48:18.096Z,101964.38
2018-10-19T02:50:48.484Z,101963.62
2018-10-19T02:53:18.963Z,101962.06
2018-10-19T02:55:49.248Z,101965.92
2018-10-19T02:58:19.524Z,101972.37
2018-10-19T03:00:49.926Z,101973.23
2018-10-19T03:03:20.296Z,101974.48
2018-10-19T03:05:50.478Z,101972.77
2018-10-19T03:08:20.937Z,101963.34
2018-10-19T03:10:51.349Z,101971.03
2018-10-19T03:13:21.559Z,101969.73
2018-10-19T03:15:51.888Z,101965.46
2018-10-19T03:18:22.261Z,101969.28
2018-10-19T03:20:52.655Z,101966.75
2018-10-19T03:23:22.887Z,101967.18
2018-10-19T03:25:53.074Z,101968.41
2018-10-19T03:28:23.575Z,101967.98
2018-10-19T03:30:54.083Z,101964.16
2018-10-19T03:33:24.297Z,101969.73
2018-10-19T03:35:54.714Z,101967.22
2018-10-19T03:38:25.262Z,101962.11
2018-10-19T03:40:55.720Z,101963.41
2018-10-19T03:43:26.265Z,101960.80
2018-10-19T03:45:56.534Z,101960.39
2018-10-19T03:48:26.907Z,101962.52
2018-10-19T03:50:57.298Z,101960.39
2018-10-19T03:53:27.711Z,101958.05
2018-10-19T03:55:58.077Z,101956.39
2018-10-19T03:58:28.453Z,101962.84
2018-10-19T04:00:58.876Z,101963.02
2018-10-19T04:03:29.206Z,101960.59
2018-10-19T04:05:59.807Z,101967.90
2018-10-19T04:08:30.172Z,101963.36
2018-10-19T04:11:00.703Z,101965.13
2018-10-19T04:13:30.981Z,101962.22
2018-10-19T04:16:01.305Z,101966.55
2018-10-19T04:18:31.765Z,101966.09
2018-10-19T04:21:02.204Z,101971.34
2018-10-19T04:23:32.977Z,101969.64
2018-10-19T04:26:03.443Z,101971.83
2018-10-19T04:28:33.895Z,101972.25
2018-10-19T04:31:04.288Z,101960.20
2018-10-19T04:33:35.151Z,101964.02
2018-10-19T04:36:05.700Z,101966.63
2018-10-19T04:38:36.130Z,101974.75
2018-10-19T04:41:06.649Z,101963.66
2018-10-19T04:43:36.720Z,101969.67
2018-10-19T04:46:07.185Z,101969.64
2018-10-19T04:48:37.260Z,101971.73
2018-10-19T04:51:07.623Z,101974.76
2018-10-19T04:53:37.841Z,101970.84
2018-10-19T04:56:08.293Z,101972.04
2018-10-19T04:58:38.743Z,101973.40
2018-10-19T05:01:09.667Z,101972.58
2018-10-19T05:03:40.144Z,101966.89
2018-10-19T05:06:10.652Z,101972.88
2018-10-19T05:08:41.132Z,101971.22
2018-10-19T05:11:11.688Z,101975.55
2018-10-19T05:13:48.513Z,101982.09
2018-10-19T05:16:18.770Z,101979.91
2018-10-19T05:18:49.150Z,101981.21
2018-10-19T05:21:19.548Z,101987.21
2018-10-19T05:23:50.260Z,101985.04
2018-10-19T05:26:21.009Z,101978.98
2018-10-19T05:28:51.527Z,101977.22
2018-10-19T05:31:24.600Z,101976.83
2018-10-19T05:33:56.958Z,101981.17
2018-10-19T05:36:27.386Z,101982.06
2018-10-19T05:38:57.852Z,101978.20
2018-10-19T05:41:28.437Z,101983.38
2018-10-19T05:43:58.846Z,101978.66
2018-10-19T05:46:29.325Z,101982.56
2018-10-19T05:48:59.551Z,101980.89
2018-10-19T05:51:29.885Z,101976.21
2018-10-19T05:54:00.198Z,101979.30
2018-10-19T05:56:30.507Z,101984.86
2018-10-19T05:59:00.916Z,101987.46
2018-10-19T06:01:31.273Z,101985.70
2018-10-19T06:04:01.831Z,101986.59
2018-10-19T06:06:32.372Z,101983.59
2018-10-19T06:09:02.987Z,101984.86
2018-10-19T06:11:33.307Z,101986.03
2018-10-19T06:14:03.630Z,101989.37
2018-10-19T06:16:33.927Z,101988.89
2018-10-19T06:19:05.703Z,101992.14
2018-10-19T06:21:36.043Z,101993.69
2018-10-19T06:24:07.774Z,101983.17
2018-10-19T06:26:38.136Z,101986.98
2018-10-19T06:29:08.829Z,101985.03
2018-10-19T06:31:39.296Z,101982.78
2018-10-19T06:34:09.800Z,101985.35
2018-10-19T06:36:40.388Z,101995.23
2018-10-19T06:39:12.343Z,101990.73
2018-10-19T06:41:43.167Z,101989.95
2018-10-19T06:44:13.639Z,101981.73
2018-10-19T06:46:44.209Z,101987.75
2018-10-19T06:49:15.368Z,101991.47
2018-10-19T06:51:49.620Z,101994.17
2018-10-19T06:54:20.112Z,102003.52
2018-10-19T06:56:50.580Z,102010.55
2018-10-19T06:59:20.984Z,102014.31
2018-10-19T07:01:51.315Z,102011.26
2018-10-19T07:04:21.664Z,102016.30
2018-10-19T07:06:52.196Z,102016.49
2018-10-19T07:09:22.445Z,102014.09
2018-10-19T07:11:52.867Z,102022.66
2018-10-19T07:14:23.836Z,102027.02
2018-10-19T07:16:54.045Z,102028.91
2018-10-19T07:19:24.705Z,102026.42
2018-10-19T07:21:55.201Z,102023.45
2018-10-19T07:24:25.664Z,102024.73
2018-10-19T07:26:56.163Z,102023.50
2018-10-19T07:29:26.414Z,102022.23
2018-10-19T07:31:57.227Z,102019.02
2018-10-19T07:34:27.568Z,102027.80
2018-10-19T07:36:57.960Z,102041.11
2018-10-19T07:39:28.452Z,102052.36
2018-10-19T07:41:58.684Z,102049.93
2018-10-19T07:44:29.103Z,102046.48
2018-10-19T07:46:59.512Z,102043.51
2018-10-19T07:49:30.056Z,102050.05
2018-10-19T07:52:00.691Z,102044.60
2018-10-19T07:54:31.117Z,102048.98
2018-10-19T07:57:01.537Z,102049.10
2018-10-19T07:59:31.875Z,102045.53
2018-10-19T08:02:02.319Z,102042.80
2018-10-19T08:04:32.735Z,102041.95
2018-10-19T08:07:03.248Z,102048.88
2018-10-19T08:09:33.638Z,102055.73
2018-10-19T08:12:04.117Z,102058.85
2018-10-19T08:14:34.474Z,102055.98
2018-10-19T08:17:04.891Z,102055.95
2018-10-19T08:19:35.424Z,102058.44
2018-10-19T08:22:05.945Z,102062.06
2018-10-19T08:24:36.308Z,102056.61
2018-10-19T08:27:06.835Z,102068.38
2018-10-19T08:29:37.266Z,102066.65
2018-10-19T08:32:08.466Z,102063.23
2018-10-19T08:34:39.102Z,102073.95
2018-10-19T08:37:09.644Z,102068.38
2018-10-19T08:39:40.022Z,102067.91
2018-10-19T08:42:10.394Z,102079.20
2018-10-19T08:44:40.848Z,102072.31
2018-10-19T08:47:11.362Z,102070.89
2018-10-19T08:49:41.959Z,102066.27
2018-10-19T08:52:12.361Z,102069.74
2018-10-19T08:54:42.867Z,102071.45
2018-10-19T08:57:13.340Z,102068.63
2018-10-19T08:59:43.871Z,102066.25
2018-10-19T09:02:14.880Z,102073.96
2018-10-19T09:04:46.132Z,102072.38
2018-10-19T09:07:16.422Z,102079.83
2018-10-19T09:09:47.012Z,102078.31
2018-10-19T09:12:17.311Z,102070.20
2018-10-19T09:14:55.352Z,102080.48
2018-10-19T09:17:25.901Z,102078.45
2018-10-19T09:19:56.351Z,102074.36
2018-10-19T09:22:26.917Z,102069.22
2018-10-19T09:24:57.371Z,102066.41
2018-10-19T09:27:27.775Z,102061.75
2018-10-19T09:29:58.168Z,102069.79
2018-10-19T09:32:28.547Z,102064.05
2018-10-19T09:34:59.042Z,102065.86
2018-10-19T09:37:29.407Z,102058.01
2018-10-19T09:39:59.880Z,102064.39
2018-10-19T09:42:30.268Z,102062.56
2018-10-19T09:45:00.658Z,102058.71
2018-10-19T09:47:31.137Z,102051.68
2018-10-19T09:50:01.468Z,102054.60
2018-10-19T09:52:31.962Z,102048.55
2018-10-19T09:55:02.495Z,102043.48
2018-10-19T09:57:33.055Z,102044.80
2018-10-19T10:00:03.624Z,102034.30
2018-10-19T10:02:34.232Z,102039.91
2018-10-19T10:05:04.830Z,102038.70
2018-10-19T10:07:35.060Z,102040.06
2018-10-19T10:10:05.815Z,102045.86
2018-10-19T10:12:36.135Z,102036.14
2018-10-19T10:15:06.909Z,102033.93
2018-10-19T10:17:37.384Z,102029.80
2018-10-19T10:20:08.787Z,102029.33
2018-10-19T10:22:38.967Z,102029.75
2018-10-19T10:25:10.280Z,102038.91
2018-10-19T10:27:40.772Z,102029.81
2018-10-19T10:30:12.432Z,102033.92
2018-10-19T10:32:42.888Z,102030.59
2018-10-19T10:35:13.219Z,102032.79
2018-10-19T10:37:43.601Z,102034.77
2018-10-19T10:40:14.290Z,102028.55
2018-10-19T10:42:44.721Z,102026.41
2018-10-19T10:45:15.167Z,102027.81
2018-10-19T10:47:45.782Z,102016.50
2018-10-19T10:50:16.040Z,102023.09
2018-10-19T10:52:46.506Z,102015.98
2018-10-19T10:55:17.063Z,102006.50
2018-10-19T10:57:47.879Z,102002.48
2018-10-19T11:00:18.348Z,102000.05
2018-10-19T11:02:48.760Z,101999.51
2018-10-19T11:05:19.229Z,102003.71
2018-10-19T11:07:49.620Z,101998.71
2018-10-19T11:10:19.989Z,101995.17
2018-10-19T11:12:50.744Z,101990.11
2018-10-19T11:15:21.134Z,101987.78
2018-10-19T11:17:51.577Z,101987.48
2018-10-19T11:20:22.216Z,101999.27
2018-10-19T11:22:52.783Z,101983.08
2018-10-19T11:25:23.079Z,101985.19
2018-10-19T11:27:53.557Z,101985.72
2018-10-19T11:30:24.057Z,101978.84
2018-10-19T11:32:54.472Z,101979.37
2018-10-19T11:35:24.922Z,101968.23
2018-10-19T11:37:55.357Z,101977.15
2018-10-19T11:40:32.266Z,101967.17
2018-10-19T11:43:02.797Z,101965.15
2018-10-19T11:45:33.985Z,101957.83
2018-10-19T11:48:04.436Z,101962.36
2018-10-19T11:50:34.843Z,101963.58
2018-10-19T11:53:05.445Z,101960.25
2018-10-19T11:55:35.903Z,101960.66
2018-10-19T11:58:06.355Z,101956.66
2018-10-19T12:00:36.920Z,101958.84
2018-10-19T12:03:07.293Z,101955.97
2018-10-19T12:05:37.664Z,101939.70
2018-10-19T12:08:08.044Z,101941.87
2018-10-19T12:10:38.554Z,101934.87
2018-10-19T12:13:08.959Z,101931.77
2018-10-19T12:15:39.473Z,101937.56
2018-10-19T12:18:09.894Z,101934.81
2018-10-19T12:20:40.236Z,101927.19
2018-10-19T12:23:10.532Z,101936.62
2018-10-19T12:25:41.111Z,101932.41
2018-10-19T12:28:11.488Z,101929.23
2018-10-19T12:30:41.952Z,101928.14
2018-10-19T12:33:12.560Z,101933.17
2018-10-19T12:35:50.699Z,101932.63
2018-10-19T12:38:21.067Z,101935.67
2018-10-19T12:40:51.441Z,101931.66
2018-10-19T12:43:21.853Z,101926.30
2018-10-19T12:46:36.297Z,101922.88
2018-10-19T12:49:06.890Z,101926.25
2018-10-19T12:51:37.593Z,101919.53
2018-10-19T12:54:08.406Z,101919.28
2018-10-19T12:56:38.729Z,101917.41
2018-10-19T12:59:09.313Z,101907.77
2018-10-19T13:01:39.809Z,101905.77
2018-10-19T13:04:10.213Z,101907.90
2018-10-19T13:06:40.773Z,101906.86
2018-10-19T13:09:13.291Z,101908.89
2018-10-19T13:11:43.680Z,101910.09
2018-10-19T13:14:14.092Z,101904.70
2018-10-19T13:16:44.350Z,101912.69
2018-10-19T13:19:14.813Z,101906.66
2018-10-19T13:21:45.119Z,101909.45
2018-10-19T13:24:15.556Z,101906.18
2018-10-19T13:26:45.948Z,101903.84
2018-10-19T13:29:16.343Z,101901.13
2018-10-19T13:31:46.719Z,101898.81
2018-10-19T13:34:17.152Z,101894.44
2018-10-19T13:36:47.740Z,101898.59
2018-10-19T13:39:17.972Z,101897.92
2018-10-19T13:41:48.396Z,101895.91
2018-10-19T13:44:19.253Z,101894.92
2018-10-19T13:46:49.834Z,101889.94
2018-10-19T13:49:20.283Z,101895.83
2018-10-19T13:51:51.362Z,101890.75
2018-10-19T13:54:21.797Z,101884.46
2018-10-19T13:56:52.285Z,101885.81
2018-10-19T13:59:22.555Z,101881.92
2018-10-19T14:01:52.895Z,101887.13
2018-10-19T14:04:23.237Z,101883.31
2018-10-19T14:06:53.583Z,101885.92
2018-10-19T14:09:23.837Z,101881.75
2018-10-19T14:11:54.223Z,101879.73
2018-10-19T14:14:24.638Z,101875.25
2018-10-19T14:16:55.016Z,101871.83
2018-10-19T14:19:25.516Z,101866.97
2018-10-19T14:21:55.955Z,101867.05
2018-10-19T14:24:26.144Z,101859.53
2018-10-19T14:26:56.530Z,101861.83
2018-10-19T14:29:27.110Z,101859.81
2018-10-19T14:31:57.892Z,101862.03
2018-10-19T14:34:28.379Z,101861.58
2018-10-19T14:36:58.855Z,101854.39
2018-10-19T14:39:29.451Z,101855.92
2018-10-19T14:42:00.559Z,101856.55
2018-10-19T14:44:30.933Z,101859.95
2018-10-19T14:47:01.212Z,101861.05
2018-10-19T14:49:31.565Z,101866.59
2018-10-19T14:52:02.092Z,101864.95
2018-10-19T14:54:32.611Z,101863.72
2018-10-19T14:57:03.259Z,101860.09
2018-10-19T14:59:33.721Z,101863.09
2018-10-19T15:02:04.100Z,101858.13
2018-10-19T15:04:34.521Z,101859.63
2018-10-19T15:07:05.142Z,101862.19
2018-10-19T15:09:35.571Z,101862.16
2018-10-19T15:12:06.273Z,101852.96
2018-10-19T15:14:37.898Z,101856.56
2018-10-19T15:17:08.884Z,101856.19
2018-10-19T15:19:39.327Z,101855.13
2018-10-19T15:22:09.789Z,101859.95
2018-10-19T15:24:40.156Z,101849.67
2018-10-19T15:27:10.863Z,101856.69
2018-10-19T15:29:41.320Z,101856.47
2018-10-19T15:32:11.849Z,101863.61
2018-10-19T15:34:42.418Z,101867.48
2018-10-19T15:37:12.984Z,101864.31
2018-10-19T15:39:43.370Z,101869.95
2018-10-19T15:42:13.703Z,101866.11
2018-10-19T15:44:44.011Z,101876.27
2018-10-19T15:47:14.396Z,101880.72
2018-10-19T15:49:44.780Z,101877.89
2018-10-19T15:52:15.384Z,101880.95
2018-10-19T15:54:45.744Z,101880.52
2018-10-19T15:57:16.158Z,101882.42
2018-10-19T15:59:46.611Z,101874.07
2018-10-19T16:02:17.169Z,101882.14
2018-10-19T16:04:48.354Z,101879.58
2018-10-19T16:07:19.445Z,101885.27
2018-10-19T16:09:49.888Z,101888.72
2018-10-19T16:12:20.257Z,101890.14
2018-10-19T16:14:50.633Z,101883.19
2018-10-19T16:17:20.997Z,101885.36
2018-10-19T16:19:51.346Z,101882.00
2018-10-19T16:22:21.887Z,101887.55
2018-10-19T16:24:52.246Z,101888.44
2018-10-19T16:27:22.684Z,101890.26
2018-10-19T16:29:53.013Z,101896.75
2018-10-19T16:32:23.588Z,101894.97
2018-10-19T16:34:54.019Z,101894.19
2018-10-19T16:37:24.339Z,101895.09
2018-10-19T16:39:54.716Z,101897.95
2018-10-19T16:42:25.176Z,101902.96
2018-10-19T16:44:55.604Z,101906.59
2018-10-19T16:47:26.091Z,101905.55
2018-10-19T16:49:56.555Z,101902.23
2018-10-19T16:52:27.038Z,101901.03
2018-10-19T16:54:57.392Z,101902.58
2018-10-19T16:57:27.787Z,101910.53
2018-10-19T16:59:58.308Z,101917.30
2018-10-19T17:02:28.979Z,101916.25
2018-10-19T17:04:59.372Z,101917.61
2018-10-19T17:07:29.935Z,101920.20
2018-10-19T17:10:00.445Z,101924.24
2018-10-19T17:12:30.895Z,101928.70
2018-10-19T17:15:01.207Z,101932.77
2018-10-19T17:17:31.636Z,101939.06
2018-10-19T17:20:01.938Z,101945.22
2018-10-19T17:22:32.433Z,101951.83
2018-10-19T17:25:02.919Z,101951.05
2018-10-19T17:27:33.356Z,101949.92
2018-10-19T17:30:03.754Z,101956.91
2018-10-19T17:32:34.211Z,101957.03
2018-10-19T17:35:04.861Z,101953.23
2018-10-19T17:37:35.509Z,101960.62
2018-10-19T17:40:07.142Z,101957.62
2018-10-19T17:42:37.547Z,101953.20
2018-10-19T17:45:10.131Z,101957.66
2018-10-19T17:47:41.671Z,101955.66
2018-10-19T17:50:12.802Z,101959.17
2018-10-19T17:52:43.386Z,101952.69
2018-10-19T17:55:13.760Z,101962.35
2018-10-19T17:57:44.260Z,101961.30
2018-10-19T18:00:14.673Z,101964.80
2018-10-19T18:02:44.942Z,101967.34
2018-10-19T18:05:15.491Z,101970.92
2018-10-19T18:07:45.891Z,101972.77
2018-10-19T18:10:16.395Z,101985.07
2018-10-19T18:12:46.677Z,101988.78
2018-10-19T18:15:17.085Z,101990.96
2018-10-19T18:17:47.395Z,101984.53
2018-10-19T18:20:17.892Z,101983.95
2018-10-19T18:22:48.372Z,101983.12
2018-10-19T18:25:18.540Z,101991.77
2018-10-19T18:27:49.015Z,101985.07
2018-10-19T18:30:19.432Z,101988.38
2018-10-19T18:32:50.128Z,101992.81
2018-10-19T18:35:20.764Z,101992.45
2018-10-19T18:37:51.604Z,101995.28
2018-10-19T18:40:22.404Z,101997.67
2018-10-19T18:42:53.598Z,101993.48
2018-10-19T18:45:24.698Z,102001.86
2018-10-19T18:47:55.948Z,101998.70
2018-10-19T18:50:27.476Z,102007.31
2018-10-19T18:52:58.744Z,102001.98
2018-10-19T18:55:30.709Z,101999.61
2018-10-19T18:58:02.452Z,102003.69
2018-10-19T19:00:34.228Z,102006.63
2018-10-19T19:03:05.881Z,102007.23
2018-10-19T19:05:37.807Z,102007.34
2018-10-19T19:08:09.706Z,102016.96
2018-10-19T19:10:41.633Z,102024.00
2018-10-19T19:13:18.262Z,102019.84
2018-10-19T19:15:50.154Z,102025.14
2018-10-19T19:18:21.930Z,102024.96
2018-10-19T19:20:53.273Z,102024.96
2018-10-19T19:23:25.161Z,102033.08
2018-10-19T19:26:02.079Z,102032.79
2018-10-19T19:28:33.996Z,102038.06
2018-10-19T19:31:05.631Z,102031.59
2018-10-19T19:33:42.725Z,102035.47
2018-10-19T19:36:14.198Z,102031.69
2018-10-19T19:38:45.436Z,102031.23
2018-10-19T19:41:21.777Z,102021.56
2018-10-19T19:43:52.699Z,102018.39
2018-10-19T19:46:23.218Z,102023.57
2018-10-19T19:48:58.982Z,102020.73
2018-10-19T19:51:29.818Z,102031.23
2018-10-19T19:54:01.381Z,102035.18
2018-10-19T19:56:31.829Z,102018.98
2018-10-19T19:59:02.393Z,102028.84
2018-10-19T20:01:32.728Z,102034.63
2018-10-19T20:04:03.414Z,102041.64
2018-10-19T20:06:33.931Z,102037.02
2018-10-19T20:09:05.653Z,102040.38
2018-10-19T20:11:36.026Z,102040.80
2018-10-19T20:14:06.545Z,102040.86
2018-10-19T20:16:36.945Z,102045.61
2018-10-19T20:19:07.815Z,102038.85
2018-10-19T20:21:38.132Z,102036.23
2018-10-19T20:24:09.112Z,102034.64
2018-10-19T20:26:39.513Z,102036.45
2018-10-19T20:29:10.230Z,102026.98
2018-10-19T20:31:40.564Z,102025.11
2018-10-19T20:34:11.542Z,102021.59
2018-10-19T20:36:41.828Z,102026.02
2018-10-19T20:39:13.324Z,102023.48
2018-10-19T20:41:43.609Z,102020.06
2018-10-19T20:44:13.996Z,102019.19
2018-10-19T20:46:44.292Z,102020.91
2018-10-19T20:49:14.864Z,102012.09
2018-10-19T20:51:45.418Z,102013.16
2018-10-19T20:54:15.723Z,102015.12
2018-10-19T20:56:46.003Z,102014.86
2018-10-19T20:59:16.744Z,102024.06
2018-10-19T21:01:47.223Z,102026.23
2018-10-19T21:04:17.748Z,102030.19
2018-10-19T21:06:47.814Z,102025.98
2018-10-19T21:09:17.903Z,102030.41
2018-10-19T21:11:47.935Z,102029.66
2018-10-19T21:14:18.028Z,102027.31
2018-10-19T21:16:48.067Z,102026.92
2018-10-19T21:19:18.483Z,102029.19
2018-10-19T21:21:48.875Z,102026.41
2018-10-19T21:24:19.246Z,102022.34
2018-10-19T21:26:50.207Z,102024.43
2018-10-19T21:29:20.828Z,102020.59
2018-10-19T21:31:51.091Z,102018.45
2018-10-19T21:34:21.369Z,102017.31
2018-10-19T21:36:51.685Z,102012.69
2018-10-19T21:39:22.037Z,102016.22
2018-10-19T21:41:52.540Z,102016.72
2018-10-19T21:44:23.004Z,102024.53
2018-10-19T21:46:53.723Z,102032.31
2018-10-19T21:49:24.056Z,102042.27
2018-10-19T21:51:54.435Z,102046.27
2018-10-19T21:54:24.919Z,102046.30
2018-10-19T21:56:55.341Z,102048.47
2018-10-19T21:59:25.777Z,102055.84
2018-10-19T22:01:55.998Z,102057.20
2018-10-19T22:04:26.426Z,102053.34
2018-10-19T22:06:56.928Z,102056.41
2018-10-19T22:09:27.433Z,102052.16
2018-10-19T22:11:57.904Z,102053.86
2018-10-19T22:14:28.129Z,102059.48
2018-10-19T22:16:58.431Z,102062.97
2018-10-19T22:19:28.853Z,102069.86
2018-10-19T22:21:59.360Z,102064.27
2018-10-19T22:24:29.668Z,102070.27
2018-10-19T22:27:00.086Z,102068.59
2018-10-19T22:29:30.544Z,102059.61
2018-10-19T22:32:00.918Z,102059.70
2018-10-19T22:34:31.303Z,102063.09
2018-10-19T22:37:02.584Z,102062.73
2018-10-19T22:39:32.991Z,102061.03
2018-10-19T22:42:03.391Z,102058.50
2018-10-19T22:44:34.023Z,102069.64
2018-10-19T22:47:04.434Z,102064.48
2018-10-19T22:49:34.803Z,102061.90
2018-10-19T22:52:05.126Z,102064.08
2018-10-19T22:54:35.487Z,102073.10
2018-10-19T22:57:05.960Z,102072.27
2018-10-19T22:59:36.409Z,102074.40
2018-10-19T23:02:07.249Z,102070.13
2018-10-19T23:04:37.682Z,102063.67
2018-10-19T23:07:08.243Z,102061.97
2018-10-19T23:09:38.808Z,102062.83
2018-10-19T23:12:09.812Z,102064.54
2018-10-19T23:14:40.155Z,102072.28
2018-10-19T23:17:10.869Z,102074.80
2018-10-19T23:19:41.227Z,102079.09
2018-10-19T23:22:11.573Z,102079.91
2018-10-19T23:24:41.956Z,102078.56
2018-10-19T23:27:12.241Z,102082.33
2018-10-19T23:29:42.856Z,102078.88
2018-10-19T23:32:13.423Z,102078.78
2018-10-19T23:34:43.986Z,102080.09
2018-10-19T23:37:14.249Z,102081.78
2018-10-19T23:39:44.643Z,102081.41
2018-10-19T23:42:14.973Z,102071.52
2018-10-19T23:44:45.423Z,102067.23
2018-10-19T23:47:16.078Z,102069.86
2018-10-19T23:49:46.371Z,102072.05
2018-10-19T23:52:16.753Z,102064.23
2018-10-19T23:54:47.310Z,102065.15
2018-10-19T23:57:17.748Z,102068.20
2018-10-19T23:59:48.203Z,102076.38
